EGJJLFRN

Guest
Details From EGJJ - Jersey
To LFRN - Rennes St Jacques
Flight Number -
Tags decoded
Created
Modified
Stats Distance 90 nm / 167 km
Max Altitude 0 ft / 0 m
Waypoints 8
Social Downloads 3
Likes 0
Share VATSIM

Download

Looking for another format? Having issues loading an existing format? Contact us
Advertisement - Login to hide

Notes

Requested: EGJJ PERCH ORVAL DOLDE BETOG BUNOT GOMDA LFRN

Route

EGJJ PERCH ORVAL DOLDE BETOG BUNOT GOMDA LFRN

ID Type Via Altitude Latitude Longitude Leg Dist Tot Dist Heading (true) Name
O EGJJ APT - 0 ft / 0 m 49.20796˚ -2.19529˚ - 0 nm - Jersey
PERCH FIX - 0 ft / 0 m 49.12917˚ -1.93722˚ 11 nm 11 nm 115° / 115° -
ORVAL FIX - 0 ft / 0 m 49.03389˚ -1.82528˚ 7 nm 18 nm 142° / 142° -
DOLDE FIX - 0 ft / 0 m 48.57556˚ -1.70278˚ 27 nm 46 nm 170° / 170° -
BETOG FIX - 0 ft / 0 m 48.33639˚ -1.71750˚ 14 nm 60 nm 182° / 182° -
BUNOT FIX - 0 ft / 0 m 48.05250˚ -1.49445˚ 19 nm 79 nm 152° / 152° -
GOMDA FIX - 0 ft / 0 m 48.04198˚ -1.49649˚ 0 nm 80 nm 187° / 187° -
O LFRN APT - 0 ft / 0 m 48.06941˚ -1.73459˚ 9 nm 90 nm 280° / 280° Rennes St Jacques

Altitude Profile

Advertisement - Login to hide

EGJJ

Details ICAO EGJJ (JER)
Name Jersey
Region United Kingdom
Timezone Europe/Jersey (UTC+0.0)
Stats Elevation 277 ft / 84 m (AMSL)
Location 49.207964° -2.195294°
Runways 1
Magnetic Variation 0.904° W

METAR

EGJJ 120220Z AUTO 27009KT 9999 FEW026/// 06/03 Q1004

Decode

TAF

Not found

Departure Runways

ID Width Length Bearing (true) Bearing (mag) Surface Threshold Offset Overrun Length
09 151 ft / 46 m 5,593 ft / 1,705 m 82.73° 83.63° Asphalt 200 ft / 61 m 0 ft / 0 m
27 151 ft / 46 m 5,593 ft / 1,705 m 262.74° 263.64° Asphalt 302 ft / 92 m 0 ft / 0 m

LFRN

Details ICAO LFRN (RNS)
Name Rennes St Jacques
Region France
Timezone Europe/Paris (UTC+1.0)
Stats Elevation 124 ft / 38 m (AMSL)
Location 48.069410° -1.734587°
Runways 2
Magnetic Variation 0.634° W

METAR

LFRN 120230Z AUTO 24002KT CAVOK 00/M01 Q1006 TEMPO 3000 BR

Decode

TAF

TAF LFRN 112300Z 1200/1224 VRB03KT 9999 SCT030 PROB30 TEMPO 1203/1208 3000 BR BECMG 1220/1222 18010KT PROB30 TEMPO 1222/1224 5000 RA

Decode

Destination Runways

ID Width Length Bearing (true) Bearing (mag) Surface Threshold Offset Overrun Length
10 148 ft / 45 m 6,895 ft / 2,102 m 100.76° 101.39° Asphalt 230 ft / 70 m 0 ft / 0 m
14 98 ft / 30 m 2,785 ft / 849 m 142.19° 142.82° Asphalt 0 ft / 0 m 0 ft / 0 m
28 148 ft / 45 m 6,895 ft / 2,102 m 280.78° 281.41° Asphalt 0 ft / 0 m 0 ft / 0 m
32 98 ft / 30 m 2,785 ft / 849 m 322.20° 322.83° Asphalt 0 ft / 0 m 0 ft / 0 m

Approach Navaids

Runway Type Ident Frequency Range Bearing (true) Bearing (mag) Slope Elevation
28 Localiser RS 110.10 MHz 18 nm / 33 km 280.72° 281.35° - 124 ft / 38 m (AMSL)
28 Glidescope RS 110.10 MHz 10 nm / 19 km 280.77° 281.40° 3.00° 124 ft / 38 m (AMSL)
28 DME RS 110.10 MHz 18 nm / 33 km - - - 174 ft / 53 m (AMSL)